sensor_id;sensor_type;location;lat;lon;timestamp;P1;durP1;ratioP1;P2;durP2;ratioP2
24585;SDS011;12743;52.262;6.172;2022-07-29T00:02:11;4.47;;;0.90;;
24585;SDS011;12743;52.262;6.172;2022-07-29T00:04:36;2.87;;;0.80;;
24585;SDS011;12743;52.262;6.172;2022-07-29T00:07:03;3.20;;;0.70;;
24585;SDS011;12743;52.262;6.172;2022-07-29T00:09:29;3.33;;;0.80;;
24585;SDS011;12743;52.262;6.172;2022-07-29T00:11:55;3.97;;;0.82;;
24585;SDS011;12743;52.262;6.172;2022-07-29T00:14:23;5.07;;;1.08;;
24585;SDS011;12743;52.262;6.172;2022-07-29T00:16:48;3.93;;;1.10;;
24585;SDS011;12743;52.262;6.172;2022-07-29T00:19:14;4.37;;;0.80;;
24585;SDS011;12743;52.262;6.172;2022-07-29T00:21:39;5.53;;;1.00;;
24585;SDS011;12743;52.262;6.172;2022-07-29T00:24:04;4.47;;;1.20;;
24585;SDS011;12743;52.262;6.172;2022-07-29T00:26:30;5.05;;;0.85;;
24585;SDS011;12743;52.262;6.172;2022-07-29T00:29:09;5.40;;;0.90;;
24585;SDS011;12743;52.262;6.172;2022-07-29T00:34:03;3.63;;;0.85;;
24585;SDS011;12743;52.262;6.172;2022-07-29T00:36:28;5.97;;;1.00;;
24585;SDS011;12743;52.262;6.172;2022-07-29T00:38:54;5.05;;;1.10;;
24585;SDS011;12743;52.262;6.172;2022-07-29T00:41:19;6.90;;;1.30;;
24585;SDS011;12743;52.262;6.172;2022-07-29T00:43:45;4.05;;;1.02;;
24585;SDS011;12743;52.262;6.172;2022-07-29T00:46:11;4.13;;;0.97;;
24585;SDS011;12743;52.262;6.172;2022-07-29T00:48:37;3.83;;;1.23;;
24585;SDS011;12743;52.262;6.172;2022-07-29T00:51:03;4.90;;;1.27;;
24585;SDS011;12743;52.262;6.172;2022-07-29T00:53:30;3.92;;;0.70;;
24585;SDS011;12743;52.262;6.172;2022-07-29T00:55:57;4.70;;;1.20;;
24585;SDS011;12743;52.262;6.172;2022-07-29T00:58:23;7.60;;;0.90;;
24585;SDS011;12743;52.262;6.172;2022-07-29T01:00:49;3.97;;;1.13;;
24585;SDS011;12743;52.262;6.172;2022-07-29T01:03:15;3.17;;;0.90;;
24585;SDS011;12743;52.262;6.172;2022-07-29T01:05:41;4.90;;;1.00;;
24585;SDS011;12743;52.262;6.172;2022-07-29T01:08:08;3.72;;;1.02;;
24585;SDS011;12743;52.262;6.172;2022-07-29T01:10:35;4.45;;;1.35;;
24585;SDS011;12743;52.262;6.172;2022-07-29T01:13:02;4.82;;;1.20;;
24585;SDS011;12743;52.262;6.172;2022-07-29T01:15:28;5.33;;;1.20;;
24585;SDS011;12743;52.262;6.172;2022-07-29T01:26:33;2.80;;;1.10;;
24585;SDS011;12743;52.262;6.172;2022-07-29T01:29:12;4.63;;;1.40;;
24585;SDS011;12743;52.262;6.172;2022-07-29T01:32:05;4.10;;;1.00;;
24585;SDS011;12743;52.262;6.172;2022-07-29T01:34:38;2.92;;;1.08;;
24585;SDS011;12743;52.262;6.172;2022-07-29T01:37:21;8.50;;;1.40;;
24585;SDS011;12743;52.262;6.172;2022-07-29T01:39:51;4.43;;;1.50;;
24585;SDS011;12743;52.262;6.172;2022-07-29T01:42:26;5.00;;;0.88;;
24585;SDS011;12743;52.262;6.172;2022-07-29T01:45:10;2.73;;;0.70;;
24585;SDS011;12743;52.262;6.172;2022-07-29T01:47:46;5.43;;;1.40;;
24585;SDS011;12743;52.262;6.172;2022-07-29T01:50:19;4.75;;;1.13;;
24585;SDS011;12743;52.262;6.172;2022-07-29T01:52:56;6.82;;;1.40;;
24585;SDS011;12743;52.262;6.172;2022-07-29T01:55:28;3.75;;;1.23;;
24585;SDS011;12743;52.262;6.172;2022-07-29T01:57:56;6.60;;;1.50;;
24585;SDS011;12743;52.262;6.172;2022-07-29T02:00:23;4.00;;;1.30;;
24585;SDS011;12743;52.262;6.172;2022-07-29T02:02:51;3.60;;;1.20;;
24585;SDS011;12743;52.262;6.172;2022-07-29T02:05:19;4.53;;;1.20;;
24585;SDS011;12743;52.262;6.172;2022-07-29T02:07:48;5.78;;;1.40;;
24585;SDS011;12743;52.262;6.172;2022-07-29T02:10:14;5.17;;;1.53;;
24585;SDS011;12743;52.262;6.172;2022-07-29T02:12:42;2.55;;;1.00;;
24585;SDS011;12743;52.262;6.172;2022-07-29T02:15:09;4.20;;;1.10;;
24585;SDS011;12743;52.262;6.172;2022-07-29T02:17:40;5.35;;;1.27;;
24585;SDS011;12743;52.262;6.172;2022-07-29T02:20:10;3.63;;;1.20;;
24585;SDS011;12743;52.262;6.172;2022-07-29T02:22:37;4.03;;;1.00;;
24585;SDS011;12743;52.262;6.172;2022-07-29T02:25:04;3.40;;;1.05;;
24585;SDS011;12743;52.262;6.172;2022-07-29T02:27:31;3.95;;;1.10;;
24585;SDS011;12743;52.262;6.172;2022-07-29T02:29:59;3.97;;;1.02;;
24585;SDS011;12743;52.262;6.172;2022-07-29T02:32:27;4.05;;;1.02;;
24585;SDS011;12743;52.262;6.172;2022-07-29T02:34:54;3.97;;;1.30;;
24585;SDS011;12743;52.262;6.172;2022-07-29T02:37:21;3.90;;;1.27;;
24585;SDS011;12743;52.262;6.172;2022-07-29T02:39:48;5.60;;;1.33;;
24585;SDS011;12743;52.262;6.172;2022-07-29T02:42:18;4.80;;;1.30;;
24585;SDS011;12743;52.262;6.172;2022-07-29T02:44:47;5.13;;;1.30;;
24585;SDS011;12743;52.262;6.172;2022-07-29T02:47:18;3.70;;;1.10;;
24585;SDS011;12743;52.262;6.172;2022-07-29T02:50:00;4.43;;;1.13;;
24585;SDS011;12743;52.262;6.172;2022-07-29T02:53:02;7.03;;;1.20;;
24585;SDS011;12743;52.262;6.172;2022-07-29T02:55:37;3.58;;;1.15;;
24585;SDS011;12743;52.262;6.172;2022-07-29T03:00:53;4.07;;;1.00;;
24585;SDS011;12743;52.262;6.172;2022-07-29T03:03:21;3.20;;;1.10;;
24585;SDS011;12743;52.262;6.172;2022-07-29T03:05:52;8.18;;;1.27;;
24585;SDS011;12743;52.262;6.172;2022-07-29T03:08:21;3.55;;;1.00;;
24585;SDS011;12743;52.262;6.172;2022-07-29T03:10:47;4.75;;;1.35;;
24585;SDS011;12743;52.262;6.172;2022-07-29T03:13:13;4.20;;;1.00;;
24585;SDS011;12743;52.262;6.172;2022-07-29T03:15:42;3.42;;;1.13;;
24585;SDS011;12743;52.262;6.172;2022-07-29T03:18:08;3.00;;;1.13;;
24585;SDS011;12743;52.262;6.172;2022-07-29T03:20:34;5.95;;;1.13;;
24585;SDS011;12743;52.262;6.172;2022-07-29T03:22:59;4.27;;;1.10;;
24585;SDS011;12743;52.262;6.172;2022-07-29T03:25:25;2.57;;;1.10;;
24585;SDS011;12743;52.262;6.172;2022-07-29T03:27:52;4.57;;;1.15;;
24585;SDS011;12743;52.262;6.172;2022-07-29T03:30:17;6.20;;;1.20;;
24585;SDS011;12743;52.262;6.172;2022-07-29T03:32:42;3.50;;;1.17;;
24585;SDS011;12743;52.262;6.172;2022-07-29T03:35:08;4.67;;;1.20;;
24585;SDS011;12743;52.262;6.172;2022-07-29T03:37:33;5.47;;;1.40;;
24585;SDS011;12743;52.262;6.172;2022-07-29T03:40:02;4.05;;;1.10;;
24585;SDS011;12743;52.262;6.172;2022-07-29T03:42:33;4.57;;;1.10;;
24585;SDS011;12743;52.262;6.172;2022-07-29T03:45:02;4.57;;;1.50;;
24585;SDS011;12743;52.262;6.172;2022-07-29T03:47:31;4.95;;;1.40;;
24585;SDS011;12743;52.262;6.172;2022-07-29T03:50:00;5.45;;;1.20;;
24585;SDS011;12743;52.262;6.172;2022-07-29T03:52:31;4.60;;;1.33;;
24585;SDS011;12743;52.262;6.172;2022-07-29T03:54:57;3.27;;;0.87;;
24585;SDS011;12743;52.262;6.172;2022-07-29T03:57:23;4.45;;;1.42;;
24585;SDS011;12743;52.262;6.172;2022-07-29T03:59:52;5.17;;;1.40;;
24585;SDS011;12743;52.262;6.172;2022-07-29T04:02:18;5.85;;;1.35;;
24585;SDS011;12743;52.262;6.172;2022-07-29T04:04:44;4.70;;;1.35;;
24585;SDS011;12743;52.262;6.172;2022-07-29T04:07:11;3.33;;;1.20;;
24585;SDS011;12743;52.262;6.172;2022-07-29T04:09:37;4.97;;;1.30;;
24585;SDS011;12743;52.262;6.172;2022-07-29T04:12:03;5.70;;;1.55;;
24585;SDS011;12743;52.262;6.172;2022-07-29T04:14:29;5.20;;;1.33;;
24585;SDS011;12743;52.262;6.172;2022-07-29T04:16:55;5.65;;;1.60;;
24585;SDS011;12743;52.262;6.172;2022-07-29T04:19:20;4.53;;;1.30;;
24585;SDS011;12743;52.262;6.172;2022-07-29T04:21:45;4.87;;;1.57;;
24585;SDS011;12743;52.262;6.172;2022-07-29T04:24:11;5.30;;;1.50;;
24585;SDS011;12743;52.262;6.172;2022-07-29T04:26:36;3.73;;;1.30;;
24585;SDS011;12743;52.262;6.172;2022-07-29T04:29:02;4.60;;;1.43;;
24585;SDS011;12743;52.262;6.172;2022-07-29T04:31:27;6.70;;;1.43;;
24585;SDS011;12743;52.262;6.172;2022-07-29T04:33:52;5.57;;;1.40;;
24585;SDS011;12743;52.262;6.172;2022-07-29T04:36:18;5.00;;;1.30;;
24585;SDS011;12743;52.262;6.172;2022-07-29T04:38:43;6.95;;;1.40;;
24585;SDS011;12743;52.262;6.172;2022-07-29T04:41:08;5.73;;;1.67;;
24585;SDS011;12743;52.262;6.172;2022-07-29T04:43:34;5.43;;;1.67;;
24585;SDS011;12743;52.262;6.172;2022-07-29T04:46:00;5.90;;;1.40;;
24585;SDS011;12743;52.262;6.172;2022-07-29T04:48:26;3.95;;;1.40;;
24585;SDS011;12743;52.262;6.172;2022-07-29T04:50:52;3.60;;;1.40;;
24585;SDS011;12743;52.262;6.172;2022-07-29T04:53:17;4.07;;;1.67;;
24585;SDS011;12743;52.262;6.172;2022-07-29T04:55:43;5.80;;;1.83;;
24585;SDS011;12743;52.262;6.172;2022-07-29T04:58:09;4.68;;;1.42;;
24585;SDS011;12743;52.262;6.172;2022-07-29T05:00:35;4.33;;;1.57;;
24585;SDS011;12743;52.262;6.172;2022-07-29T05:03:01;6.40;;;1.80;;
24585;SDS011;12743;52.262;6.172;2022-07-29T05:05:26;4.33;;;1.70;;
24585;SDS011;12743;52.262;6.172;2022-07-29T05:07:51;3.13;;;1.40;;
24585;SDS011;12743;52.262;6.172;2022-07-29T05:10:17;7.23;;;2.00;;
24585;SDS011;12743;52.262;6.172;2022-07-29T05:12:43;5.70;;;1.50;;
24585;SDS011;12743;52.262;6.172;2022-07-29T05:15:08;4.47;;;1.90;;
24585;SDS011;12743;52.262;6.172;2022-07-29T05:17:34;5.05;;;1.83;;
24585;SDS011;12743;52.262;6.172;2022-07-29T05:19:59;5.30;;;1.70;;
24585;SDS011;12743;52.262;6.172;2022-07-29T05:22:25;6.23;;;2.03;;
24585;SDS011;12743;52.262;6.172;2022-07-29T05:24:50;8.07;;;2.07;;
24585;SDS011;12743;52.262;6.172;2022-07-29T05:27:16;6.57;;;1.90;;
24585;SDS011;12743;52.262;6.172;2022-07-29T05:29:41;4.75;;;1.90;;
24585;SDS011;12743;52.262;6.172;2022-07-29T05:32:06;5.13;;;2.07;;
24585;SDS011;12743;52.262;6.172;2022-07-29T05:34:32;3.20;;;1.40;;
24585;SDS011;12743;52.262;6.172;2022-07-29T05:36:57;5.13;;;1.80;;
24585;SDS011;12743;52.262;6.172;2022-07-29T05:39:23;6.50;;;1.85;;
24585;SDS011;12743;52.262;6.172;2022-07-29T05:41:48;7.27;;;2.00;;
24585;SDS011;12743;52.262;6.172;2022-07-29T05:44:14;6.60;;;2.00;;
24585;SDS011;12743;52.262;6.172;2022-07-29T05:46:39;6.85;;;2.25;;
24585;SDS011;12743;52.262;6.172;2022-07-29T05:49:05;6.13;;;2.30;;
24585;SDS011;12743;52.262;6.172;2022-07-29T05:51:34;8.52;;;2.25;;
24585;SDS011;12743;52.262;6.172;2022-07-29T05:53:59;5.87;;;1.73;;
24585;SDS011;12743;52.262;6.172;2022-07-29T05:56:25;5.72;;;1.75;;
24585;SDS011;12743;52.262;6.172;2022-07-29T05:58:51;6.87;;;2.00;;
24585;SDS011;12743;52.262;6.172;2022-07-29T06:01:17;5.40;;;1.80;;
24585;SDS011;12743;52.262;6.172;2022-07-29T06:03:42;5.93;;;2.00;;
24585;SDS011;12743;52.262;6.172;2022-07-29T06:06:08;4.97;;;2.03;;
24585;SDS011;12743;52.262;6.172;2022-07-29T06:08:33;8.32;;;2.10;;
24585;SDS011;12743;52.262;6.172;2022-07-29T06:11:00;6.77;;;1.80;;
24585;SDS011;12743;52.262;6.172;2022-07-29T06:13:26;6.47;;;1.92;;
24585;SDS011;12743;52.262;6.172;2022-07-29T06:15:51;4.27;;;1.90;;
24585;SDS011;12743;52.262;6.172;2022-07-29T06:18:16;5.25;;;1.85;;
24585;SDS011;12743;52.262;6.172;2022-07-29T06:20:42;5.93;;;1.80;;
24585;SDS011;12743;52.262;6.172;2022-07-29T06:23:07;5.13;;;1.80;;
24585;SDS011;12743;52.262;6.172;2022-07-29T06:25:33;14.83;;;2.40;;
24585;SDS011;12743;52.262;6.172;2022-07-29T06:28:00;4.32;;;1.73;;
24585;SDS011;12743;52.262;6.172;2022-07-29T06:30:25;5.32;;;1.80;;
24585;SDS011;12743;52.262;6.172;2022-07-29T06:32:51;5.27;;;1.70;;
24585;SDS011;12743;52.262;6.172;2022-07-29T06:35:17;4.97;;;1.80;;
24585;SDS011;12743;52.262;6.172;2022-07-29T06:37:42;4.72;;;2.03;;
24585;SDS011;12743;52.262;6.172;2022-07-29T06:40:08;6.93;;;2.00;;
24585;SDS011;12743;52.262;6.172;2022-07-29T06:42:52;4.18;;;1.90;;
24585;SDS011;12743;52.262;6.172;2022-07-29T06:45:17;7.00;;;1.90;;
24585;SDS011;12743;52.262;6.172;2022-07-29T06:47:43;6.43;;;1.73;;
24585;SDS011;12743;52.262;6.172;2022-07-29T06:50:08;8.23;;;1.90;;
24585;SDS011;12743;52.262;6.172;2022-07-29T06:52:37;5.78;;;2.10;;
24585;SDS011;12743;52.262;6.172;2022-07-29T06:55:04;7.10;;;1.77;;
24585;SDS011;12743;52.262;6.172;2022-07-29T06:57:29;6.40;;;1.97;;
24585;SDS011;12743;52.262;6.172;2022-07-29T06:59:58;5.45;;;1.73;;
24585;SDS011;12743;52.262;6.172;2022-07-29T07:02:23;5.53;;;1.93;;
24585;SDS011;12743;52.262;6.172;2022-07-29T07:04:48;5.53;;;1.90;;
24585;SDS011;12743;52.262;6.172;2022-07-29T07:07:14;6.60;;;2.07;;
24585;SDS011;12743;52.262;6.172;2022-07-29T07:09:39;4.43;;;1.80;;
24585;SDS011;12743;52.262;6.172;2022-07-29T07:12:05;6.07;;;1.90;;
24585;SDS011;12743;52.262;6.172;2022-07-29T07:14:30;7.38;;;2.10;;
24585;SDS011;12743;52.262;6.172;2022-07-29T07:16:56;6.03;;;1.90;;
24585;SDS011;12743;52.262;6.172;2022-07-29T07:19:21;7.93;;;2.20;;
24585;SDS011;12743;52.262;6.172;2022-07-29T07:21:47;6.72;;;2.03;;
24585;SDS011;12743;52.262;6.172;2022-07-29T07:24:12;5.90;;;2.00;;
24585;SDS011;12743;52.262;6.172;2022-07-29T07:26:38;5.13;;;1.97;;
24585;SDS011;12743;52.262;6.172;2022-07-29T07:29:04;5.57;;;2.00;;
24585;SDS011;12743;52.262;6.172;2022-07-29T07:31:30;5.55;;;2.30;;
24585;SDS011;12743;52.262;6.172;2022-07-29T07:33:56;6.30;;;1.83;;
24585;SDS011;12743;52.262;6.172;2022-07-29T07:36:21;5.97;;;2.50;;
24585;SDS011;12743;52.262;6.172;2022-07-29T07:38:47;8.00;;;1.80;;
24585;SDS011;12743;52.262;6.172;2022-07-29T07:41:15;5.33;;;2.20;;
24585;SDS011;12743;52.262;6.172;2022-07-29T07:43:41;7.85;;;2.35;;
24585;SDS011;12743;52.262;6.172;2022-07-29T07:46:06;6.73;;;2.07;;
24585;SDS011;12743;52.262;6.172;2022-07-29T07:48:32;5.07;;;2.07;;
24585;SDS011;12743;52.262;6.172;2022-07-29T07:50:59;7.55;;;2.45;;
24585;SDS011;12743;52.262;6.172;2022-07-29T07:53:25;6.33;;;2.30;;
24585;SDS011;12743;52.262;6.172;2022-07-29T07:55:50;6.70;;;2.15;;
24585;SDS011;12743;52.262;6.172;2022-07-29T07:58:15;5.50;;;1.80;;
24585;SDS011;12743;52.262;6.172;2022-07-29T08:00:41;5.33;;;1.50;;
24585;SDS011;12743;52.262;6.172;2022-07-29T08:03:06;6.23;;;1.90;;
24585;SDS011;12743;52.262;6.172;2022-07-29T08:05:32;6.90;;;2.33;;
24585;SDS011;12743;52.262;6.172;2022-07-29T08:07:57;7.73;;;2.23;;
24585;SDS011;12743;52.262;6.172;2022-07-29T08:10:22;7.40;;;2.00;;
24585;SDS011;12743;52.262;6.172;2022-07-29T08:13:07;6.55;;;2.50;;
24585;SDS011;12743;52.262;6.172;2022-07-29T08:15:33;4.60;;;2.10;;
24585;SDS011;12743;52.262;6.172;2022-07-29T08:17:59;9.82;;;2.50;;
24585;SDS011;12743;52.262;6.172;2022-07-29T08:20:25;7.43;;;2.40;;
24585;SDS011;12743;52.262;6.172;2022-07-29T08:22:52;7.53;;;2.70;;
24585;SDS011;12743;52.262;6.172;2022-07-29T08:25:18;7.13;;;2.63;;
24585;SDS011;12743;52.262;6.172;2022-07-29T08:27:45;7.20;;;2.20;;
24585;SDS011;12743;52.262;6.172;2022-07-29T08:30:11;8.63;;;2.00;;
24585;SDS011;12743;52.262;6.172;2022-07-29T08:32:37;6.45;;;2.20;;
24585;SDS011;12743;52.262;6.172;2022-07-29T08:35:02;6.93;;;2.67;;
24585;SDS011;12743;52.262;6.172;2022-07-29T08:37:28;4.00;;;1.60;;
24585;SDS011;12743;52.262;6.172;2022-07-29T08:39:53;10.50;;;1.93;;
24585;SDS011;12743;52.262;6.172;2022-07-29T08:42:19;4.77;;;2.27;;
24585;SDS011;12743;52.262;6.172;2022-07-29T08:44:44;6.07;;;2.50;;
24585;SDS011;12743;52.262;6.172;2022-07-29T08:47:10;7.68;;;2.60;;
24585;SDS011;12743;52.262;6.172;2022-07-29T08:49:38;6.73;;;2.70;;
24585;SDS011;12743;52.262;6.172;2022-07-29T08:52:04;8.82;;;2.20;;
24585;SDS011;12743;52.262;6.172;2022-07-29T08:54:30;6.77;;;2.53;;
24585;SDS011;12743;52.262;6.172;2022-07-29T08:56:56;5.43;;;2.10;;
24585;SDS011;12743;52.262;6.172;2022-07-29T08:59:22;7.53;;;2.70;;
24585;SDS011;12743;52.262;6.172;2022-07-29T09:01:52;7.18;;;2.15;;
24585;SDS011;12743;52.262;6.172;2022-07-29T09:04:19;6.17;;;2.47;;
24585;SDS011;12743;52.262;6.172;2022-07-29T09:06:49;6.80;;;2.17;;
24585;SDS011;12743;52.262;6.172;2022-07-29T09:09:16;6.00;;;2.47;;
24585;SDS011;12743;52.262;6.172;2022-07-29T09:11:42;5.17;;;2.00;;
24585;SDS011;12743;52.262;6.172;2022-07-29T09:14:08;8.05;;;2.20;;
24585;SDS011;12743;52.262;6.172;2022-07-29T09:16:43;6.13;;;2.70;;
24585;SDS011;12743;52.262;6.172;2022-07-29T09:19:19;5.38;;;2.58;;
24585;SDS011;12743;52.262;6.172;2022-07-29T09:21:45;5.80;;;2.30;;
24585;SDS011;12743;52.262;6.172;2022-07-29T09:24:23;6.88;;;2.80;;
24585;SDS011;12743;52.262;6.172;2022-07-29T09:26:50;7.35;;;2.78;;
24585;SDS011;12743;52.262;6.172;2022-07-29T09:29:20;7.33;;;2.80;;
24585;SDS011;12743;52.262;6.172;2022-07-29T09:32:02;7.78;;;2.78;;
24585;SDS011;12743;52.262;6.172;2022-07-29T09:34:33;5.68;;;2.40;;
24585;SDS011;12743;52.262;6.172;2022-07-29T09:36:58;6.90;;;2.43;;
24585;SDS011;12743;52.262;6.172;2022-07-29T09:39:30;6.63;;;2.37;;
24585;SDS011;12743;52.262;6.172;2022-07-29T09:42:05;6.78;;;2.60;;
24585;SDS011;12743;52.262;6.172;2022-07-29T09:44:44;7.03;;;2.70;;
24585;SDS011;12743;52.262;6.172;2022-07-29T09:47:13;5.90;;;2.50;;
24585;SDS011;12743;52.262;6.172;2022-07-29T09:49:52;6.65;;;2.00;;
24585;SDS011;12743;52.262;6.172;2022-07-29T09:52:18;5.70;;;2.40;;
24585;SDS011;12743;52.262;6.172;2022-07-29T09:54:44;8.15;;;3.10;;
24585;SDS011;12743;52.262;6.172;2022-07-29T09:57:21;7.17;;;3.17;;
24585;SDS011;12743;52.262;6.172;2022-07-29T10:00:22;8.85;;;2.90;;
24585;SDS011;12743;52.262;6.172;2022-07-29T10:02:43;8.40;;;2.90;;
24585;SDS011;12743;52.262;6.172;2022-07-29T10:05:18;6.43;;;2.53;;
24585;SDS011;12743;52.262;6.172;2022-07-29T10:07:51;6.53;;;2.17;;
24585;SDS011;12743;52.262;6.172;2022-07-29T10:10:20;6.93;;;2.27;;
24585;SDS011;12743;52.262;6.172;2022-07-29T10:12:49;8.60;;;2.50;;
24585;SDS011;12743;52.262;6.172;2022-07-29T10:15:16;7.00;;;2.75;;
24585;SDS011;12743;52.262;6.172;2022-07-29T10:17:43;5.78;;;2.15;;
24585;SDS011;12743;52.262;6.172;2022-07-29T10:20:09;5.97;;;2.67;;
24585;SDS011;12743;52.262;6.172;2022-07-29T10:22:34;7.18;;;2.42;;
24585;SDS011;12743;52.262;6.172;2022-07-29T10:25:00;8.40;;;2.50;;
24585;SDS011;12743;52.262;6.172;2022-07-29T10:27:26;4.65;;;2.17;;
24585;SDS011;12743;52.262;6.172;2022-07-29T10:29:53;5.53;;;2.10;;
24585;SDS011;12743;52.262;6.172;2022-07-29T10:34:49;4.63;;;1.70;;
24585;SDS011;12743;52.262;6.172;2022-07-29T10:43:21;7.38;;;2.05;;
24585;SDS011;12743;52.262;6.172;2022-07-29T10:45:49;7.30;;;3.20;;
24585;SDS011;12743;52.262;6.172;2022-07-29T10:48:21;5.47;;;3.15;;
24585;SDS011;12743;52.262;6.172;2022-07-29T10:50:59;8.23;;;3.20;;
24585;SDS011;12743;52.262;6.172;2022-07-29T10:53:48;7.70;;;2.78;;
24585;SDS011;12743;52.262;6.172;2022-07-29T10:56:23;5.67;;;2.77;;
24585;SDS011;12743;52.262;6.172;2022-07-29T10:59:22;5.70;;;2.28;;
24585;SDS011;12743;52.262;6.172;2022-07-29T11:01:44;5.35;;;2.30;;
24585;SDS011;12743;52.262;6.172;2022-07-29T11:04:11;7.22;;;2.75;;
24585;SDS011;12743;52.262;6.172;2022-07-29T11:09:30;7.23;;;3.30;;
24585;SDS011;12743;52.262;6.172;2022-07-29T11:11:56;8.60;;;3.05;;
24585;SDS011;12743;52.262;6.172;2022-07-29T11:17:20;7.10;;;2.60;;
24585;SDS011;12743;52.262;6.172;2022-07-29T11:19:46;9.13;;;3.20;;
24585;SDS011;12743;52.262;6.172;2022-07-29T11:22:12;7.40;;;2.30;;
24585;SDS011;12743;52.262;6.172;2022-07-29T11:25:12;10.27;;;2.58;;
24585;SDS011;12743;52.262;6.172;2022-07-29T11:27:41;6.60;;;2.20;;
24585;SDS011;12743;52.262;6.172;2022-07-29T11:30:08;8.30;;;2.63;;
24585;SDS011;12743;52.262;6.172;2022-07-29T11:32:43;5.88;;;2.45;;
24585;SDS011;12743;52.262;6.172;2022-07-29T11:35:14;5.18;;;2.40;;
24585;SDS011;12743;52.262;6.172;2022-07-29T11:37:42;6.68;;;2.40;;
24585;SDS011;12743;52.262;6.172;2022-07-29T11:40:09;7.67;;;2.90;;
24585;SDS011;12743;52.262;6.172;2022-07-29T11:42:37;6.93;;;2.20;;
24585;SDS011;12743;52.262;6.172;2022-07-29T11:47:37;8.73;;;2.60;;
24585;SDS011;12743;52.262;6.172;2022-07-29T11:50:17;6.32;;;2.33;;
24585;SDS011;12743;52.262;6.172;2022-07-29T11:52:52;4.17;;;1.70;;
24585;SDS011;12743;52.262;6.172;2022-07-29T11:55:18;6.30;;;2.10;;
24585;SDS011;12743;52.262;6.172;2022-07-29T11:57:54;5.83;;;1.90;;
24585;SDS011;12743;52.262;6.172;2022-07-29T12:00:22;5.65;;;1.90;;
24585;SDS011;12743;52.262;6.172;2022-07-29T12:02:47;6.85;;;1.92;;
24585;SDS011;12743;52.262;6.172;2022-07-29T12:05:12;5.87;;;1.93;;
24585;SDS011;12743;52.262;6.172;2022-07-29T12:07:38;7.37;;;1.97;;
24585;SDS011;12743;52.262;6.172;2022-07-29T12:10:04;4.88;;;2.05;;
24585;SDS011;12743;52.262;6.172;2022-07-29T12:12:31;7.93;;;2.00;;
24585;SDS011;12743;52.262;6.172;2022-07-29T12:14:56;6.47;;;1.97;;
24585;SDS011;12743;52.262;6.172;2022-07-29T12:17:25;7.88;;;2.30;;
24585;SDS011;12743;52.262;6.172;2022-07-29T12:19:52;7.57;;;1.97;;
24585;SDS011;12743;52.262;6.172;2022-07-29T12:22:25;5.38;;;1.75;;
24585;SDS011;12743;52.262;6.172;2022-07-29T12:24:51;4.00;;;1.45;;
24585;SDS011;12743;52.262;6.172;2022-07-29T12:27:17;5.53;;;1.87;;
24585;SDS011;12743;52.262;6.172;2022-07-29T12:29:43;6.82;;;1.60;;
24585;SDS011;12743;52.262;6.172;2022-07-29T12:32:08;5.67;;;1.63;;
24585;SDS011;12743;52.262;6.172;2022-07-29T12:34:34;6.85;;;1.52;;
24585;SDS011;12743;52.262;6.172;2022-07-29T12:36:59;6.90;;;1.50;;
24585;SDS011;12743;52.262;6.172;2022-07-29T12:39:26;9.25;;;1.95;;
24585;SDS011;12743;52.262;6.172;2022-07-29T12:41:53;5.13;;;1.30;;
24585;SDS011;12743;52.262;6.172;2022-07-29T12:44:18;4.63;;;1.50;;
24585;SDS011;12743;52.262;6.172;2022-07-29T12:46:44;8.07;;;1.73;;
24585;SDS011;12743;52.262;6.172;2022-07-29T12:49:15;6.25;;;1.63;;
24585;SDS011;12743;52.262;6.172;2022-07-29T12:51:46;5.53;;;2.00;;
24585;SDS011;12743;52.262;6.172;2022-07-29T12:54:14;7.22;;;2.00;;
24585;SDS011;12743;52.262;6.172;2022-07-29T12:56:40;6.30;;;1.95;;
24585;SDS011;12743;52.262;6.172;2022-07-29T12:59:20;8.00;;;2.20;;
24585;SDS011;12743;52.262;6.172;2022-07-29T13:01:48;8.07;;;1.80;;
24585;SDS011;12743;52.262;6.172;2022-07-29T13:07:26;9.48;;;1.85;;
24585;SDS011;12743;52.262;6.172;2022-07-29T13:09:54;5.15;;;1.50;;
24585;SDS011;12743;52.262;6.172;2022-07-29T13:12:34;5.47;;;1.43;;
24585;SDS011;12743;52.262;6.172;2022-07-29T13:14:59;7.20;;;1.67;;
24585;SDS011;12743;52.262;6.172;2022-07-29T13:17:25;6.77;;;2.00;;
24585;SDS011;12743;52.262;6.172;2022-07-29T13:20:07;5.10;;;1.73;;
24585;SDS011;12743;52.262;6.172;2022-07-29T13:22:37;6.85;;;1.90;;
24585;SDS011;12743;52.262;6.172;2022-07-29T13:25:03;5.95;;;1.80;;
24585;SDS011;12743;52.262;6.172;2022-07-29T13:27:31;5.78;;;1.98;;
24585;SDS011;12743;52.262;6.172;2022-07-29T13:29:58;5.27;;;1.90;;
24585;SDS011;12743;52.262;6.172;2022-07-29T13:32:26;5.53;;;2.17;;
24585;SDS011;12743;52.262;6.172;2022-07-29T13:34:53;7.13;;;1.90;;
24585;SDS011;12743;52.262;6.172;2022-07-29T13:37:19;6.85;;;1.77;;
24585;SDS011;12743;52.262;6.172;2022-07-29T13:39:45;6.53;;;1.73;;
24585;SDS011;12743;52.262;6.172;2022-07-29T13:42:11;6.35;;;1.85;;
24585;SDS011;12743;52.262;6.172;2022-07-29T13:44:38;5.03;;;1.88;;
24585;SDS011;12743;52.262;6.172;2022-07-29T13:47:04;7.03;;;2.00;;
24585;SDS011;12743;52.262;6.172;2022-07-29T13:49:29;7.28;;;2.25;;
24585;SDS011;12743;52.262;6.172;2022-07-29T13:51:55;9.03;;;2.17;;
24585;SDS011;12743;52.262;6.172;2022-07-29T13:54:20;5.10;;;1.50;;
24585;SDS011;12743;52.262;6.172;2022-07-29T13:56:46;6.40;;;1.60;;
24585;SDS011;12743;52.262;6.172;2022-07-29T13:59:11;9.25;;;1.60;;
24585;SDS011;12743;52.262;6.172;2022-07-29T14:01:37;6.60;;;1.90;;
24585;SDS011;12743;52.262;6.172;2022-07-29T14:04:03;6.73;;;1.97;;
24585;SDS011;12743;52.262;6.172;2022-07-29T14:06:29;7.15;;;1.80;;
24585;SDS011;12743;52.262;6.172;2022-07-29T14:08:54;9.13;;;2.03;;
24585;SDS011;12743;52.262;6.172;2022-07-29T14:11:20;4.20;;;1.77;;
24585;SDS011;12743;52.262;6.172;2022-07-29T14:13:45;4.87;;;1.67;;
24585;SDS011;12743;52.262;6.172;2022-07-29T14:16:10;6.07;;;1.90;;
24585;SDS011;12743;52.262;6.172;2022-07-29T14:18:36;4.55;;;1.90;;
24585;SDS011;12743;52.262;6.172;2022-07-29T14:21:02;7.57;;;2.17;;
24585;SDS011;12743;52.262;6.172;2022-07-29T14:23:27;5.40;;;1.60;;
24585;SDS011;12743;52.262;6.172;2022-07-29T14:25:52;6.10;;;1.60;;
24585;SDS011;12743;52.262;6.172;2022-07-29T14:28:18;5.27;;;1.43;;
24585;SDS011;12743;52.262;6.172;2022-07-29T14:30:43;4.90;;;1.70;;
24585;SDS011;12743;52.262;6.172;2022-07-29T14:33:08;6.47;;;1.83;;
24585;SDS011;12743;52.262;6.172;2022-07-29T14:35:34;7.03;;;1.90;;
24585;SDS011;12743;52.262;6.172;2022-07-29T14:37:59;5.87;;;1.90;;
24585;SDS011;12743;52.262;6.172;2022-07-29T14:40:25;6.28;;;1.80;;
24585;SDS011;12743;52.262;6.172;2022-07-29T14:42:50;6.47;;;1.77;;
24585;SDS011;12743;52.262;6.172;2022-07-29T14:45:16;5.40;;;2.15;;
24585;SDS011;12743;52.262;6.172;2022-07-29T14:47:42;5.30;;;1.70;;
24585;SDS011;12743;52.262;6.172;2022-07-29T14:50:07;4.57;;;1.70;;
24585;SDS011;12743;52.262;6.172;2022-07-29T14:52:33;5.47;;;1.30;;
24585;SDS011;12743;52.262;6.172;2022-07-29T14:54:59;7.70;;;1.77;;
24585;SDS011;12743;52.262;6.172;2022-07-29T14:57:24;5.73;;;2.00;;
24585;SDS011;12743;52.262;6.172;2022-07-29T14:59:50;6.17;;;1.83;;
24585;SDS011;12743;52.262;6.172;2022-07-29T15:02:15;4.37;;;1.80;;
24585;SDS011;12743;52.262;6.172;2022-07-29T15:04:41;5.85;;;2.03;;
24585;SDS011;12743;52.262;6.172;2022-07-29T15:07:06;4.20;;;1.47;;
24585;SDS011;12743;52.262;6.172;2022-07-29T15:09:31;6.60;;;2.10;;
24585;SDS011;12743;52.262;6.172;2022-07-29T15:11:57;5.40;;;1.90;;
24585;SDS011;12743;52.262;6.172;2022-07-29T15:14:22;3.53;;;1.60;;
24585;SDS011;12743;52.262;6.172;2022-07-29T15:16:47;6.37;;;1.77;;
24585;SDS011;12743;52.262;6.172;2022-07-29T15:19:13;5.10;;;2.00;;
24585;SDS011;12743;52.262;6.172;2022-07-29T15:21:38;6.53;;;2.67;;
24585;SDS011;12743;52.262;6.172;2022-07-29T15:24:04;7.37;;;2.23;;
24585;SDS011;12743;52.262;6.172;2022-07-29T15:26:29;8.82;;;2.08;;